createdAt,value
2023-04-25T00:11:27.719Z,14.6
2023-04-25T00:26:37.458Z,12.9
2023-04-25T00:41:47.454Z,16.4
2023-04-25T00:56:56.841Z,12.2
2023-04-25T01:12:06.395Z,17.5
2023-04-25T01:27:16.260Z,11.6
2023-04-25T01:42:25.769Z,21.1
2023-04-25T01:57:35.188Z,17.1
2023-04-25T02:12:44.602Z,9.7
2023-04-25T02:27:54.445Z,11.5
2023-04-25T02:43:04.280Z,22.6
2023-04-25T02:58:13.973Z,17
2023-04-25T03:13:23.805Z,21.9
2023-04-25T03:28:32.991Z,21.9
2023-04-25T03:43:42.309Z,21.6
2023-04-25T03:58:51.938Z,18.5
2023-04-25T04:14:01.216Z,21.9
2023-04-25T04:29:11.042Z,29.4
2023-04-25T04:44:20.280Z,17.4
2023-04-25T04:59:30.076Z,23.5
2023-04-25T05:14:39.815Z,23.3
2023-04-25T05:29:49.680Z,14.4
2023-04-25T05:44:59.224Z,25.2
2023-04-25T06:00:10.744Z,16.9
2023-04-25T06:15:29.286Z,14.3
2023-04-25T06:30:39.604Z,18.2
2023-04-25T06:45:50.173Z,17.2
2023-04-25T07:01:01.219Z,14.7
2023-04-25T07:16:12.073Z,14.2
2023-04-25T07:31:21.631Z,15.9
2023-04-25T07:46:31.994Z,11.8
2023-04-25T08:01:42.569Z,14.5
2023-04-25T08:16:52.297Z,8.4
2023-04-25T08:32:02.343Z,14.3
2023-04-25T08:47:12.297Z,6.8
2023-04-25T09:02:22.905Z,5.1
2023-04-25T09:17:32.992Z,8.3
2023-04-25T09:32:43.115Z,3.4
2023-04-25T09:47:53.582Z,4.7
2023-04-25T10:03:05.268Z,10.1
2023-04-25T10:18:15.744Z,6.9
2023-04-25T10:33:25.798Z,3.9
2023-04-25T10:48:35.070Z,5.9
2023-04-25T11:03:45.132Z,1.6
2023-04-25T11:18:55.285Z,4.4
2023-04-25T11:34:04.596Z,7.2
2023-04-25T11:49:14.528Z,8.1
2023-04-25T12:04:33.382Z,5.6
2023-04-25T12:19:46.085Z,3.3
2023-04-25T12:34:55.506Z,4.5
2023-04-25T12:50:04.650Z,4
2023-04-25T13:05:14.059Z,7.3
2023-04-25T13:20:23.744Z,5.8
2023-04-25T13:35:34.407Z,7
2023-04-25T13:50:43.986Z,2.2
2023-04-25T14:05:54.098Z,4.1
2023-04-25T14:21:05.496Z,2.6
2023-04-25T14:36:16.820Z,3
2023-04-25T14:51:26.395Z,4.8
2023-04-25T15:06:35.462Z,1.8
2023-04-25T15:21:45.279Z,5
2023-04-25T15:37:00.873Z,5.6
2023-04-25T15:52:10.869Z,3.4
2023-04-25T16:07:19.610Z,4.9
2023-04-25T16:22:29.353Z,5.6
2023-04-25T16:37:39.427Z,7.7
2023-04-25T16:52:48.579Z,5.1
2023-04-25T17:07:58.287Z,3.4
2023-04-25T17:23:07.455Z,3.2
2023-04-25T17:38:17.940Z,4.4
2023-04-25T17:53:27.825Z,3.3
2023-04-25T18:08:37.296Z,5.2
2023-04-25T18:23:46.727Z,9
2023-04-25T18:39:11.613Z,6.7
2023-04-25T18:54:32.506Z,9.9
2023-04-25T19:09:41.697Z,5.8
2023-04-25T19:25:11.391Z,3.4
2023-04-25T19:40:21.406Z,8.9
2023-04-25T19:55:31.273Z,8.2
2023-04-25T20:10:41.222Z,5.2
2023-04-25T20:25:50.562Z,5.6
2023-04-25T20:41:00.228Z,9.3
2023-04-25T20:56:11.814Z,8.5
2023-04-25T21:11:21.092Z,2.5
2023-04-25T21:26:30.541Z,7.4
2023-04-25T21:41:40.082Z,3.4
2023-04-25T21:56:49.132Z,7.6
2023-04-25T22:11:58.656Z,1.7
2023-04-25T22:27:08.789Z,6.7
2023-04-25T22:42:18.549Z,10.1
2023-04-25T22:57:28.003Z,10.8
2023-04-25T23:12:37.036Z,3.2
2023-04-25T23:27:46.851Z,8.3
2023-04-25T23:42:56.197Z,7.2
2023-04-25T23:58:05.634Z,8.9
